createdAt,value
2018-06-16T00:00:16.164Z,39.80
2018-06-16T00:00:49.151Z,39.80
2018-06-16T00:01:22.197Z,39.70
2018-06-16T00:03:24.840Z,39.80
2018-06-16T00:03:57.848Z,39.80
2018-06-16T00:04:30.872Z,39.80
2018-06-16T00:05:03.939Z,39.70
2018-06-16T00:05:36.946Z,39.60
2018-06-16T00:06:09.942Z,39.70
2018-06-16T00:06:42.996Z,40.00
2018-06-16T00:07:16.052Z,39.70
2018-06-16T00:07:49.064Z,39.70
2018-06-16T00:08:22.107Z,39.70
2018-06-16T00:08:55.120Z,39.60
2018-06-16T00:09:28.108Z,39.70
2018-06-16T00:10:01.164Z,39.50
2018-06-16T00:10:34.219Z,39.00
2018-06-16T00:15:57.953Z,39.50
2018-06-16T00:16:30.992Z,41.00
2018-06-16T00:17:03.994Z,41.60
2018-06-16T00:17:37.002Z,42.10
2018-06-16T00:18:10.010Z,42.50
2018-06-16T00:18:43.555Z,42.70
2018-06-16T00:19:16.560Z,42.60
2018-06-16T00:20:52.761Z,43.20
2018-06-16T00:21:25.751Z,43.90
2018-06-16T00:21:58.786Z,45.50
2018-06-16T00:22:31.794Z,45.30
2018-06-16T00:23:04.812Z,45.60
2018-06-16T00:23:37.815Z,46.60
2018-06-16T00:24:10.839Z,46.90
2018-06-16T00:24:43.834Z,47.30
2018-06-16T00:25:16.837Z,47.30
2018-06-16T00:25:50.529Z,47.70
2018-06-16T00:26:23.535Z,47.60
2018-06-16T00:26:56.553Z,48.10
2018-06-16T00:27:29.805Z,47.60
2018-06-16T00:28:02.829Z,48.30
2018-06-16T00:28:35.815Z,49.30
2018-06-16T00:29:08.795Z,50.10
2018-06-16T00:29:41.781Z,49.80
2018-06-16T00:32:56.179Z,50.30
2018-06-16T00:33:29.213Z,51.90
2018-06-16T00:34:02.210Z,52.30
2018-06-16T00:34:35.201Z,52.50
2018-06-16T00:35:08.222Z,52.60
2018-06-16T00:35:41.235Z,52.50
2018-06-16T00:36:14.229Z,52.80
2018-06-16T00:36:47.187Z,52.70
2018-06-16T00:37:21.029Z,53.50
2018-06-16T00:37:54.031Z,54.10
2018-06-16T00:38:27.107Z,54.40
2018-06-16T00:39:00.113Z,54.10
2018-06-16T00:39:33.109Z,54.20
2018-06-16T00:40:06.149Z,54.30
2018-06-16T00:40:39.149Z,54.70
2018-06-16T00:41:12.269Z,54.40
2018-06-16T00:41:45.243Z,54.70
2018-06-16T00:42:18.271Z,55.00
2018-06-16T00:42:51.335Z,55.60
2018-06-16T00:43:24.331Z,55.50
2018-06-16T00:43:57.329Z,55.00
2018-06-16T00:44:30.331Z,54.60
2018-06-16T00:45:03.537Z,55.60
2018-06-16T00:45:36.537Z,56.20
2018-06-16T00:46:09.572Z,56.00
2018-06-16T00:46:42.555Z,56.40
2018-06-16T00:47:15.555Z,56.40
2018-06-16T00:47:48.587Z,56.70
2018-06-16T00:48:21.600Z,56.20
2018-06-16T00:48:54.593Z,56.40
2018-06-16T00:49:27.583Z,57.00
2018-06-16T00:50:00.596Z,58.60
2018-06-16T00:50:33.560Z,59.00
2018-06-16T00:51:06.553Z,59.20
2018-06-16T00:51:39.531Z,59.10
2018-06-16T00:52:12.523Z,59.30
2018-06-16T00:52:45.495Z,58.40
2018-06-16T00:53:18.475Z,58.60
2018-06-16T00:53:51.503Z,58.70
2018-06-16T00:54:24.531Z,59.00
2018-06-16T00:54:57.575Z,59.60
2018-06-16T00:55:30.571Z,59.30
2018-06-16T00:56:03.613Z,60.00
2018-06-16T00:56:36.593Z,60.00
2018-06-16T00:57:26.908Z,59.60
2018-06-16T00:57:59.865Z,59.50
2018-06-16T00:58:32.886Z,59.30
2018-06-16T00:59:05.907Z,59.90
2018-06-16T00:59:38.997Z,60.40
2018-06-16T01:00:12.357Z,61.00
2018-06-16T01:00:45.371Z,60.80
2018-06-16T01:01:18.415Z,61.10
2018-06-16T01:01:51.433Z,61.50
2018-06-16T01:02:24.447Z,61.90
2018-06-16T01:02:57.437Z,62.20
2018-06-16T01:03:30.423Z,62.30
2018-06-16T01:04:03.514Z,62.80
2018-06-16T01:04:36.511Z,63.10
2018-06-16T01:05:10.085Z,63.20
2018-06-16T01:05:43.103Z,63.70
2018-06-16T01:06:16.099Z,63.90
2018-06-16T01:06:49.083Z,64.40
2018-06-16T01:07:22.099Z,64.10
2018-06-16T01:07:55.109Z,63.20
2018-06-16T01:08:28.094Z,63.00
2018-06-16T01:09:01.131Z,63.70
2018-06-16T01:09:34.149Z,64.20
2018-06-16T01:10:07.969Z,64.40
2018-06-16T01:10:40.937Z,64.50
2018-06-16T01:11:13.939Z,63.50
2018-06-16T01:11:47.022Z,63.90
2018-06-16T01:12:20.032Z,63.90
2018-06-16T01:12:53.053Z,64.00
2018-06-16T01:13:26.059Z,64.70
2018-06-16T01:13:59.037Z,65.20
2018-06-16T01:14:32.153Z,65.10
2018-06-16T01:15:05.643Z,65.90
2018-06-16T01:15:38.626Z,66.20
2018-06-16T01:16:11.624Z,65.30
2018-06-16T01:16:44.659Z,65.70
2018-06-16T01:17:17.697Z,66.00
2018-06-16T01:17:50.715Z,65.80
2018-06-16T01:18:23.713Z,65.60
2018-06-16T01:18:56.717Z,64.80
2018-06-16T01:19:29.727Z,64.60
2018-06-16T01:20:02.859Z,65.00
2018-06-16T01:20:35.859Z,65.10
2018-06-16T01:21:08.841Z,65.70
2018-06-16T01:21:41.844Z,66.00
2018-06-16T01:22:14.879Z,65.30
2018-06-16T01:22:47.913Z,65.00
2018-06-16T01:23:20.916Z,65.50
2018-06-16T01:23:53.940Z,66.40
2018-06-16T01:24:27.616Z,66.60
2018-06-16T01:25:00.629Z,66.70
2018-06-16T01:25:33.675Z,66.90
2018-06-16T01:26:06.666Z,66.80
2018-06-16T01:26:40.124Z,66.70
2018-06-16T01:27:13.192Z,67.50
2018-06-16T01:27:46.199Z,68.60
2018-06-16T01:28:19.653Z,69.40
2018-06-16T01:28:52.643Z,69.80
2018-06-16T01:29:25.601Z,70.50
2018-06-16T01:29:58.604Z,71.90
2018-06-16T01:30:31.609Z,71.70
2018-06-16T01:31:04.648Z,70.90
2018-06-16T01:31:37.675Z,71.10
2018-06-16T01:32:10.675Z,72.00
2018-06-16T01:32:43.679Z,72.10
2018-06-16T01:33:16.657Z,71.40
2018-06-16T01:33:49.647Z,71.30
2018-06-16T01:34:22.634Z,71.40
2018-06-16T01:34:55.620Z,71.10
2018-06-16T01:35:28.603Z,70.70
2018-06-16T01:36:01.596Z,70.50
2018-06-16T01:36:34.670Z,70.70
2018-06-16T01:37:07.646Z,70.40
2018-06-16T01:37:40.660Z,70.10
2018-06-16T01:38:13.622Z,69.40
2018-06-16T01:38:46.648Z,70.00
2018-06-16T01:39:19.664Z,70.30
2018-06-16T01:39:52.647Z,70.30
2018-06-16T01:40:25.817Z,69.50
2018-06-16T01:40:58.826Z,69.50
2018-06-16T01:41:31.820Z,69.20
2018-06-16T01:42:04.830Z,69.10
2018-06-16T01:42:37.878Z,68.90
2018-06-16T01:43:10.878Z,68.90
2018-06-16T01:43:43.831Z,69.00
2018-06-16T01:44:16.837Z,69.60
2018-06-16T01:44:49.816Z,69.60
2018-06-16T01:45:23.063Z,69.90
2018-06-16T01:45:56.691Z,70.00
2018-06-16T01:46:29.696Z,70.20
2018-06-16T01:47:02.668Z,70.80
2018-06-16T01:47:35.648Z,71.40
2018-06-16T01:48:08.656Z,71.60
2018-06-16T01:48:41.773Z,71.30
2018-06-16T01:49:14.787Z,71.40
2018-06-16T01:49:47.764Z,72.40
2018-06-16T01:50:20.804Z,73.30
2018-06-16T01:50:53.804Z,73.10
2018-06-16T01:51:26.788Z,73.20
2018-06-16T01:51:59.815Z,73.50
2018-06-16T01:52:32.799Z,73.30
2018-06-16T01:53:05.796Z,73.60
2018-06-16T01:53:38.820Z,74.30
2018-06-16T01:54:11.823Z,74.80
2018-06-16T01:54:44.822Z,76.80
2018-06-16T01:55:17.796Z,78.00
2018-06-16T01:55:50.856Z,77.40
2018-06-16T01:56:23.964Z,77.90
2018-06-16T01:56:57.032Z,77.90
2018-06-16T01:57:30.024Z,77.40
2018-06-16T01:58:02.988Z,77.90
2018-06-16T01:58:35.949Z,78.10
2018-06-16T01:59:08.903Z,78.50
2018-06-16T01:59:41.904Z,78.70
2018-06-16T02:00:14.930Z,78.50
2018-06-16T02:00:47.938Z,78.40
2018-06-16T02:01:20.974Z,78.40
2018-06-16T02:01:53.964Z,78.30
2018-06-16T02:02:26.930Z,77.70
2018-06-16T02:02:59.944Z,77.20
2018-06-16T02:03:33.054Z,77.40
2018-06-16T02:04:06.131Z,78.00
2018-06-16T02:04:39.124Z,78.40
2018-06-16T02:05:12.118Z,79.10
2018-06-16T02:05:45.154Z,78.90
2018-06-16T02:06:19.136Z,78.90
2018-06-16T02:06:52.108Z,79.20
2018-06-16T02:07:25.132Z,78.90
2018-06-16T02:07:58.169Z,78.90
2018-06-16T02:08:31.188Z,78.30
2018-06-16T02:09:09.410Z,77.90
2018-06-16T02:09:42.417Z,78.30
2018-06-16T02:10:15.438Z,78.50
2018-06-16T02:10:48.422Z,78.90
2018-06-16T02:11:21.410Z,78.50
2018-06-16T02:11:54.504Z,78.80
2018-06-16T02:12:27.476Z,79.50
2018-06-16T02:13:00.508Z,79.50
2018-06-16T02:13:33.522Z,78.80
2018-06-16T02:14:07.004Z,78.60
2018-06-16T02:14:39.988Z,78.20
2018-06-16T02:16:42.524Z,78.50
2018-06-16T02:17:15.768Z,78.70
2018-06-16T02:17:48.709Z,79.90
2018-06-16T02:18:21.707Z,82.00
2018-06-16T02:18:54.710Z,81.70
2018-06-16T02:19:27.714Z,81.00
2018-06-16T02:20:00.732Z,81.60
2018-06-16T02:20:33.722Z,81.80
2018-06-16T02:21:06.689Z,81.80
2018-06-16T02:21:39.696Z,81.30
2018-06-16T02:22:12.740Z,81.80
2018-06-16T02:22:45.764Z,82.40
2018-06-16T02:23:18.732Z,82.70
2018-06-16T02:23:51.708Z,83.20
2018-06-16T02:24:24.712Z,84.00
2018-06-16T02:24:57.709Z,83.90
2018-06-16T02:25:30.686Z,84.40
2018-06-16T02:26:03.741Z,85.20
2018-06-16T02:26:36.729Z,85.40
2018-06-16T02:27:09.696Z,86.60
2018-06-16T02:27:42.707Z,87.30
2018-06-16T02:28:15.684Z,87.60
2018-06-16T02:28:48.685Z,87.80
2018-06-16T02:29:21.700Z,90.30
2018-06-16T02:29:54.711Z,89.10
2018-06-16T02:30:27.706Z,89.10
2018-06-16T02:31:00.744Z,89.60
2018-06-16T02:31:33.733Z,90.20
2018-06-16T02:32:06.762Z,92.10
2018-06-16T02:32:39.756Z,94.60
2018-06-16T02:33:12.782Z,96.50
2018-06-16T02:33:45.794Z,96.80
2018-06-16T02:34:18.774Z,98.40
2018-06-16T02:34:52.216Z,99.90
2018-06-16T02:35:25.216Z,99.90
2018-06-16T02:35:58.203Z,99.90
2018-06-16T02:36:31.204Z,99.90
2018-06-16T02:37:04.206Z,99.90
2018-06-16T02:37:37.254Z,99.90
2018-06-16T02:38:10.291Z,99.90
2018-06-16T02:38:43.312Z,99.90
2018-06-16T02:39:16.326Z,99.90
2018-06-16T02:39:49.321Z,99.90
2018-06-16T02:40:22.308Z,99.90
2018-06-16T02:40:55.316Z,99.90
2018-06-16T02:41:28.337Z,99.90
2018-06-16T02:42:01.374Z,99.90
2018-06-16T02:42:34.356Z,99.90
2018-06-16T02:43:07.338Z,99.90
2018-06-16T02:43:40.309Z,99.90
2018-06-16T02:44:13.290Z,99.90
2018-06-16T02:44:46.249Z,99.90
2018-06-16T02:46:21.048Z,99.90
2018-06-16T02:46:54.335Z,99.90
2018-06-16T02:47:27.355Z,99.90
2018-06-16T02:48:00.344Z,99.90
2018-06-16T02:48:33.333Z,99.90
2018-06-16T02:49:06.302Z,99.90
2018-06-16T02:49:39.306Z,99.90
2018-06-16T02:50:12.360Z,99.90
2018-06-16T02:50:45.304Z,99.90
2018-06-16T02:51:18.300Z,99.90
2018-06-16T02:51:51.333Z,99.90
2018-06-16T02:52:24.329Z,99.90
2018-06-16T02:52:57.325Z,99.90
2018-06-16T02:53:30.323Z,99.90
2018-06-16T02:54:03.383Z,99.90
2018-06-16T02:54:36.430Z,99.90
2018-06-16T02:55:09.462Z,99.90
2018-06-16T02:55:42.436Z,99.90
2018-06-16T02:56:15.436Z,99.90
2018-06-16T02:56:48.453Z,99.90
2018-06-16T02:57:21.404Z,99.90
2018-06-16T02:57:54.371Z,99.90
2018-06-16T02:58:27.350Z,99.90
2018-06-16T02:59:00.344Z,99.90
2018-06-16T02:59:33.607Z,99.90
2018-06-16T03:00:06.632Z,99.90
2018-06-16T03:00:39.632Z,99.90
2018-06-16T03:01:12.629Z,99.90
2018-06-16T03:01:46.157Z,99.90
2018-06-16T03:02:19.180Z,99.90
2018-06-16T03:02:52.202Z,99.90
2018-06-16T03:03:25.887Z,99.90
2018-06-16T03:03:58.822Z,99.90
2018-06-16T03:04:31.856Z,99.90
2018-06-16T03:05:04.906Z,99.90
2018-06-16T03:05:37.896Z,99.90
2018-06-16T03:06:10.928Z,99.90
2018-06-16T03:06:43.965Z,99.90
2018-06-16T03:07:16.961Z,99.90
2018-06-16T03:07:50.037Z,99.90
2018-06-16T03:08:23.072Z,99.90
2018-06-16T03:08:56.076Z,99.90
2018-06-16T03:09:29.042Z,99.90
2018-06-16T03:10:02.052Z,99.90
2018-06-16T03:10:35.072Z,99.90
2018-06-16T03:11:08.074Z,99.90
2018-06-16T03:11:41.067Z,99.90
2018-06-16T03:12:14.060Z,99.90
2018-06-16T03:12:47.055Z,99.90
2018-06-16T03:13:20.625Z,99.90
2018-06-16T03:13:53.604Z,99.90
2018-06-16T03:14:26.617Z,99.90
2018-06-16T03:15:00.253Z,99.90
2018-06-16T03:15:33.280Z,99.90
2018-06-16T03:16:06.672Z,99.90
2018-06-16T03:16:39.634Z,99.90
2018-06-16T03:17:12.633Z,99.90
2018-06-16T03:17:45.620Z,99.90
2018-06-16T03:18:18.600Z,99.90
2018-06-16T03:18:51.633Z,99.90
2018-06-16T03:19:24.631Z,99.90
2018-06-16T03:19:57.667Z,99.90
2018-06-16T03:21:34.294Z,99.90
2018-06-16T03:22:07.410Z,99.90
2018-06-16T03:22:40.429Z,99.90
2018-06-16T03:23:13.488Z,99.90
2018-06-16T03:23:46.562Z,99.90
2018-06-16T03:24:19.645Z,99.90
2018-06-16T03:24:52.627Z,99.90
2018-06-16T03:25:25.641Z,99.90
2018-06-16T03:25:58.632Z,99.90
2018-06-16T03:26:31.626Z,99.90
2018-06-16T03:27:04.698Z,99.90
2018-06-16T03:27:37.818Z,99.90
2018-06-16T03:28:10.881Z,99.90
2018-06-16T03:28:43.895Z,99.90
2018-06-16T03:29:16.879Z,99.90
2018-06-16T03:29:49.877Z,99.90
2018-06-16T03:30:22.846Z,99.90
2018-06-16T03:30:55.838Z,99.90
2018-06-16T03:31:28.843Z,99.90
2018-06-16T03:32:01.841Z,99.90
2018-06-16T03:32:34.796Z,99.90
2018-06-16T03:33:07.802Z,99.90
2018-06-16T03:33:40.831Z,99.90
2018-06-16T03:34:13.815Z,99.90
2018-06-16T03:34:46.796Z,99.90
2018-06-16T03:35:19.797Z,99.90
2018-06-16T03:35:52.820Z,99.90
2018-06-16T03:36:25.886Z,99.90
2018-06-16T03:36:58.869Z,99.90
2018-06-16T03:37:31.834Z,99.90
2018-06-16T03:38:04.886Z,99.90
2018-06-16T03:38:37.894Z,99.90
2018-06-16T03:39:10.905Z,99.90
2018-06-16T03:39:43.905Z,99.90
2018-06-16T03:40:16.904Z,99.90
2018-06-16T03:40:49.918Z,99.90
2018-06-16T03:41:22.921Z,99.90
2018-06-16T03:41:55.913Z,99.90
2018-06-16T03:42:28.954Z,99.90
2018-06-16T03:43:01.967Z,99.90
2018-06-16T03:43:34.970Z,99.90
2018-06-16T03:44:07.982Z,99.90
2018-06-16T03:44:41.578Z,99.90
2018-06-16T03:45:14.583Z,99.90
2018-06-16T03:45:47.565Z,99.90
2018-06-16T03:46:20.613Z,99.90
2018-06-16T03:46:53.632Z,99.90
2018-06-16T03:47:26.636Z,99.90
2018-06-16T03:47:59.754Z,99.90
2018-06-16T03:48:32.728Z,99.90
2018-06-16T03:49:06.226Z,99.90
2018-06-16T03:49:39.250Z,99.90
2018-06-16T03:50:12.263Z,99.90
2018-06-16T03:50:45.276Z,99.90
2018-06-16T03:51:18.232Z,99.90
2018-06-16T03:51:51.192Z,99.90
2018-06-16T03:52:24.218Z,99.90
2018-06-16T03:52:57.185Z,99.90
2018-06-16T03:53:30.206Z,99.90
2018-06-16T03:54:03.235Z,99.90
2018-06-16T03:54:36.227Z,99.90
2018-06-16T03:55:09.230Z,99.90
2018-06-16T03:55:42.252Z,99.90
2018-06-16T03:56:15.282Z,99.90
2018-06-16T03:56:48.280Z,99.90
2018-06-16T03:57:21.310Z,99.90
2018-06-16T03:57:54.339Z,99.90
2018-06-16T03:58:27.350Z,99.90
2018-06-16T03:59:00.330Z,99.90
2018-06-16T03:59:33.340Z,99.90
2018-06-16T04:00:06.353Z,99.90
2018-06-16T04:00:39.353Z,99.90
2018-06-16T04:01:13.044Z,99.90
2018-06-16T04:01:46.044Z,99.90
2018-06-16T04:02:19.218Z,99.90
2018-06-16T04:02:52.236Z,99.90
2018-06-16T04:03:25.230Z,99.90
2018-06-16T04:03:58.212Z,99.90
2018-06-16T04:04:31.206Z,99.90
2018-06-16T04:05:04.512Z,99.90
2018-06-16T04:05:37.507Z,99.90
2018-06-16T04:06:10.544Z,99.90
2018-06-16T04:06:43.520Z,99.90
2018-06-16T04:07:16.507Z,99.90
2018-06-16T04:07:49.495Z,99.90
2018-06-16T04:08:22.524Z,99.90
2018-06-16T04:08:55.534Z,99.90
2018-06-16T04:09:28.528Z,99.90
2018-06-16T04:10:01.512Z,99.90
2018-06-16T04:10:34.512Z,99.90
2018-06-16T04:11:07.524Z,99.90
2018-06-16T04:11:40.537Z,99.90
2018-06-16T04:12:13.526Z,99.90
2018-06-16T04:12:46.530Z,99.90
2018-06-16T04:13:19.548Z,99.90
2018-06-16T04:13:52.623Z,99.90
2018-06-16T04:14:25.603Z,99.90
2018-06-16T04:14:58.606Z,99.90
2018-06-16T04:15:31.728Z,99.90
2018-06-16T04:16:04.822Z,99.90
2018-06-16T04:16:37.861Z,99.90
2018-06-16T04:17:15.453Z,99.90
2018-06-16T04:17:48.395Z,99.90
2018-06-16T04:18:21.383Z,99.90
2018-06-16T04:18:54.379Z,99.90
2018-06-16T04:19:27.398Z,99.90
2018-06-16T04:20:00.392Z,99.90
2018-06-16T04:20:33.380Z,99.90
2018-06-16T04:21:06.384Z,99.90
2018-06-16T04:21:39.404Z,99.90
2018-06-16T04:22:12.484Z,99.90
2018-06-16T04:22:45.535Z,99.90
2018-06-16T04:23:18.540Z,99.90
2018-06-16T04:23:51.508Z,99.90
2018-06-16T04:24:24.488Z,99.90
2018-06-16T04:24:57.584Z,99.30
2018-06-16T04:25:30.603Z,99.10
2018-06-16T04:26:03.642Z,97.10
2018-06-16T04:26:36.683Z,90.70
2018-06-16T04:27:09.692Z,78.10
2018-06-16T04:27:42.656Z,75.00
2018-06-16T04:28:15.618Z,73.00
2018-06-16T04:28:48.644Z,69.80
2018-06-16T04:29:21.645Z,65.90
2018-06-16T04:29:54.662Z,65.90
2018-06-16T04:30:27.677Z,65.80
2018-06-16T04:31:00.698Z,65.10
2018-06-16T04:31:33.687Z,61.70
2018-06-16T04:32:06.824Z,58.60
2018-06-16T04:32:39.832Z,58.50
2018-06-16T04:33:12.861Z,57.60
2018-06-16T04:33:45.947Z,54.60
2018-06-16T04:34:19.005Z,45.70
2018-06-16T04:34:52.035Z,47.10
2018-06-16T04:35:25.036Z,48.00
2018-06-16T04:35:58.054Z,46.30
2018-06-16T04:36:31.065Z,44.30
2018-06-16T04:37:05.450Z,43.00
2018-06-16T04:37:38.472Z,38.60
2018-06-16T04:38:12.182Z,36.60
2018-06-16T04:38:45.166Z,37.10
2018-06-16T04:39:18.225Z,35.80
2018-06-16T04:39:51.200Z,34.70
2018-06-16T04:40:24.224Z,30.10
2018-06-16T04:40:57.220Z,31.80
2018-06-16T04:41:30.214Z,30.20
2018-06-16T04:42:03.832Z,28.90
2018-06-16T04:42:36.853Z,26.40
2018-06-16T04:43:09.815Z,26.70
2018-06-16T04:43:42.823Z,27.40
2018-06-16T04:44:15.824Z,23.80
2018-06-16T04:44:49.484Z,24.90
2018-06-16T04:45:22.491Z,24.80
2018-06-16T04:45:55.506Z,25.10
2018-06-16T04:46:28.520Z,22.80
2018-06-16T04:47:01.500Z,23.50
2018-06-16T04:47:34.688Z,23.30
2018-06-16T04:48:07.701Z,22.00
2018-06-16T04:48:40.716Z,21.90
2018-06-16T04:49:13.702Z,21.00
2018-06-16T04:49:46.698Z,20.90
2018-06-16T04:50:19.716Z,20.60
2018-06-16T04:50:52.743Z,20.50
2018-06-16T04:51:25.732Z,21.30
2018-06-16T04:51:58.828Z,20.70
2018-06-16T04:52:31.832Z,20.00
2018-06-16T04:53:04.903Z,20.10
2018-06-16T04:53:37.864Z,19.60
2018-06-16T04:54:10.850Z,19.80
2018-06-16T04:54:43.838Z,18.00
2018-06-16T04:55:16.827Z,19.00
2018-06-16T04:55:49.984Z,17.50
2018-06-16T04:56:22.967Z,17.70
2018-06-16T04:56:55.952Z,18.40
2018-06-16T04:57:28.961Z,18.40
2018-06-16T04:58:02.020Z,16.20
2018-06-16T04:58:35.026Z,16.00
2018-06-16T04:59:08.002Z,15.00
2018-06-16T04:59:40.989Z,14.90
2018-06-16T05:00:14.130Z,14.90
2018-06-16T05:00:47.161Z,14.30
2018-06-16T05:01:20.163Z,12.80
2018-06-16T05:01:53.151Z,11.80
2018-06-16T05:02:26.150Z,9.20
2018-06-16T05:02:59.264Z,9.60
2018-06-16T05:03:32.433Z,9.60
2018-06-16T05:04:05.415Z,8.90
2018-06-16T05:04:38.400Z,9.00
2018-06-16T05:05:11.434Z,6.40
2018-06-16T05:05:44.532Z,8.00
2018-06-16T05:06:17.522Z,8.70
2018-06-16T05:06:50.517Z,7.70
2018-06-16T05:07:23.532Z,8.00
2018-06-16T05:07:56.499Z,8.10
2018-06-16T05:08:29.478Z,5.40
2018-06-16T05:09:03.896Z,6.10
2018-06-16T05:09:36.862Z,5.10
2018-06-16T05:10:09.816Z,5.00
2018-06-16T05:10:42.767Z,5.00
2018-06-16T05:11:15.750Z,5.00
2018-06-16T05:11:48.852Z,5.00
2018-06-16T05:12:21.873Z,5.00
2018-06-16T05:12:54.824Z,5.00
2018-06-16T05:13:27.805Z,5.00
2018-06-16T05:14:00.794Z,5.00
2018-06-16T05:14:33.790Z,5.00
2018-06-16T05:15:06.955Z,5.00
2018-06-16T05:15:39.945Z,5.00
2018-06-16T05:16:13.011Z,5.00
2018-06-16T05:16:46.033Z,5.00
2018-06-16T05:17:19.111Z,5.00
2018-06-16T05:17:52.137Z,5.00
2018-06-16T05:18:25.140Z,5.00
2018-06-16T05:18:58.116Z,5.00
2018-06-16T05:19:31.069Z,5.00
2018-06-16T05:20:04.169Z,5.00
2018-06-16T05:20:37.119Z,5.00
2018-06-16T05:21:10.115Z,5.00
2018-06-16T05:21:43.064Z,5.00
2018-06-16T05:24:10.597Z,5.00
2018-06-16T05:24:43.604Z,5.00
2018-06-16T05:25:16.596Z,5.00
2018-06-16T05:25:49.651Z,5.00
2018-06-16T05:26:22.584Z,5.00
2018-06-16T05:26:55.592Z,5.00
2018-06-16T05:27:28.575Z,5.00
2018-06-16T05:28:01.549Z,5.00
2018-06-16T05:28:34.525Z,5.00
2018-06-16T05:29:07.585Z,5.00
2018-06-16T05:29:40.615Z,5.00
2018-06-16T05:30:13.604Z,5.00
2018-06-16T05:30:46.596Z,5.00
2018-06-16T05:32:49.197Z,5.00
2018-06-16T05:33:22.193Z,5.00
2018-06-16T05:33:55.369Z,5.00
2018-06-16T05:34:28.377Z,5.00
2018-06-16T05:35:01.389Z,5.00
2018-06-16T05:35:34.417Z,5.00
2018-06-16T05:36:07.461Z,5.00
2018-06-16T05:36:40.477Z,5.00
2018-06-16T05:37:13.469Z,5.00
2018-06-16T05:37:46.493Z,5.00
2018-06-16T05:38:19.557Z,5.00
2018-06-16T05:38:52.571Z,5.00
2018-06-16T05:39:25.601Z,5.00
2018-06-16T05:39:58.599Z,5.00
2018-06-16T05:40:31.605Z,5.00
2018-06-16T05:41:04.599Z,5.00
2018-06-16T05:41:37.945Z,5.00
2018-06-16T05:42:10.961Z,5.00
2018-06-16T05:42:43.940Z,5.00
2018-06-16T05:43:16.925Z,5.00
2018-06-16T05:43:49.937Z,5.00
2018-06-16T05:44:22.969Z,5.00
2018-06-16T05:44:56.891Z,5.00
2018-06-16T05:45:29.915Z,5.00
2018-06-16T05:46:03.120Z,5.00
2018-06-16T05:46:36.083Z,5.00
2018-06-16T05:47:09.081Z,5.00
2018-06-16T05:47:42.093Z,5.00
2018-06-16T05:48:15.044Z,5.00
2018-06-16T05:48:48.038Z,5.00
2018-06-16T05:49:21.053Z,5.00
2018-06-16T05:49:54.131Z,5.00
2018-06-16T05:50:27.145Z,5.00
2018-06-16T05:51:00.175Z,5.00
2018-06-16T05:51:33.149Z,5.00
2018-06-16T05:52:06.205Z,5.00
2018-06-16T05:52:39.203Z,5.00
2018-06-16T05:53:12.215Z,5.00
2018-06-16T05:53:45.215Z,5.00
2018-06-16T05:54:18.253Z,5.00
2018-06-16T05:54:51.287Z,5.00
2018-06-16T05:55:24.267Z,5.00
2018-06-16T05:55:57.283Z,5.00
2018-06-16T05:56:30.355Z,5.00
2018-06-16T05:57:03.395Z,5.00
2018-06-16T05:57:37.191Z,5.00
2018-06-16T05:58:10.175Z,5.00
2018-06-16T05:58:43.171Z,5.00
2018-06-16T05:59:16.235Z,5.00
2018-06-16T05:59:49.345Z,5.00
2018-06-16T06:00:22.346Z,5.00
2018-06-16T06:00:55.335Z,5.00
2018-06-16T06:01:28.345Z,5.00
2018-06-16T06:02:01.337Z,5.00
2018-06-16T06:02:34.327Z,5.00
2018-06-16T06:03:07.314Z,5.00
2018-06-16T06:03:40.307Z,5.00
2018-06-16T06:04:13.315Z,5.00
2018-06-16T06:04:46.345Z,5.00
2018-06-16T06:05:19.369Z,5.00
2018-06-16T06:05:52.383Z,5.00
2018-06-16T06:06:25.368Z,5.00
2018-06-16T06:06:58.391Z,5.00
2018-06-16T06:07:31.387Z,5.00
2018-06-16T06:08:04.459Z,5.00
2018-06-16T06:08:37.467Z,5.00
2018-06-16T06:09:10.628Z,5.00
2018-06-16T06:09:43.661Z,5.00
2018-06-16T06:10:16.731Z,5.00
2018-06-16T06:10:49.620Z,5.00
2018-06-16T06:11:22.655Z,5.00
2018-06-16T06:11:55.655Z,5.00
2018-06-16T06:12:29.691Z,5.00
2018-06-16T06:13:02.701Z,5.00
2018-06-16T06:13:35.703Z,5.00
2018-06-16T06:14:09.373Z,5.00
2018-06-16T06:14:42.540Z,5.00
2018-06-16T06:15:15.563Z,5.00
2018-06-16T06:15:48.608Z,5.00
2018-06-16T06:16:21.605Z,5.00
2018-06-16T06:16:55.535Z,5.00
2018-06-16T06:17:28.575Z,5.00
2018-06-16T06:18:01.638Z,5.00
2018-06-16T06:18:34.677Z,5.00
2018-06-16T06:19:07.699Z,5.00
2018-06-16T06:19:40.703Z,5.00
2018-06-16T06:20:13.689Z,5.00
2018-06-16T06:20:46.703Z,5.00
2018-06-16T06:21:19.680Z,5.00
2018-06-16T06:21:52.709Z,5.00
2018-06-16T06:22:25.716Z,5.00
2018-06-16T06:22:58.699Z,5.00
2018-06-16T06:23:31.744Z,5.00
2018-06-16T06:24:04.877Z,5.00
2018-06-16T06:24:37.904Z,5.00
2018-06-16T06:25:10.882Z,5.00
2018-06-16T06:25:43.883Z,5.00
2018-06-16T06:26:16.891Z,5.00
2018-06-16T06:26:49.895Z,5.00
2018-06-16T06:27:22.866Z,5.00
2018-06-16T06:27:56.282Z,5.00
2018-06-16T06:28:29.593Z,5.00
2018-06-16T06:29:02.592Z,5.00
2018-06-16T06:29:35.603Z,5.00
2018-06-16T06:30:08.609Z,5.00
2018-06-16T06:30:41.621Z,5.00
2018-06-16T06:31:14.615Z,5.00
2018-06-16T06:31:47.801Z,5.00
2018-06-16T06:32:20.777Z,5.00
2018-06-16T06:32:53.831Z,5.00
2018-06-16T06:33:26.801Z,5.00
2018-06-16T06:33:59.797Z,5.00
2018-06-16T06:34:32.833Z,5.00
2018-06-16T06:35:05.895Z,5.00
2018-06-16T06:35:38.899Z,5.00
2018-06-16T06:36:12.445Z,5.00
2018-06-16T06:36:47.113Z,5.00
2018-06-16T06:37:20.138Z,5.00
2018-06-16T06:37:53.133Z,5.00
2018-06-16T06:38:26.133Z,5.00
2018-06-16T06:38:59.138Z,5.00
2018-06-16T06:39:32.175Z,5.00
2018-06-16T06:40:05.463Z,5.00
2018-06-16T06:40:38.460Z,5.00
2018-06-16T06:41:12.234Z,5.00
2018-06-16T06:41:45.268Z,5.00
2018-06-16T06:42:18.262Z,5.00
2018-06-16T06:42:51.323Z,5.00
2018-06-16T06:43:24.418Z,5.00
2018-06-16T06:43:57.420Z,5.00
2018-06-16T06:44:30.452Z,5.00
2018-06-16T06:45:03.585Z,5.00
2018-06-16T06:45:36.604Z,5.00
2018-06-16T06:46:09.973Z,5.00
2018-06-16T06:46:42.983Z,5.00
2018-06-16T06:47:16.052Z,5.00
2018-06-16T06:47:49.062Z,5.00
2018-06-16T06:48:22.127Z,5.00
2018-06-16T06:48:55.179Z,5.00
2018-06-16T06:49:28.214Z,5.00
2018-06-16T06:50:01.218Z,5.00
2018-06-16T06:50:34.259Z,5.00
2018-06-16T06:51:07.313Z,5.00
2018-06-16T06:51:40.381Z,5.00
2018-06-16T06:52:13.367Z,5.00
2018-06-16T06:52:46.367Z,5.00
2018-06-16T06:53:19.389Z,5.00
2018-06-16T06:53:52.363Z,5.00
2018-06-16T06:54:25.387Z,5.00
2018-06-16T06:54:58.423Z,5.00
2018-06-16T06:55:31.489Z,5.00
2018-06-16T06:56:04.532Z,5.00
2018-06-16T06:56:37.539Z,5.00
2018-06-16T06:57:10.568Z,5.00
2018-06-16T06:57:43.567Z,5.00
2018-06-16T06:58:16.741Z,5.00
2018-06-16T06:58:49.777Z,5.00
2018-06-16T06:59:22.768Z,5.00
2018-06-16T06:59:55.799Z,5.00
2018-06-16T07:00:28.903Z,5.00
2018-06-16T07:01:01.900Z,5.00
2018-06-16T07:01:34.905Z,5.00
2018-06-16T07:02:07.905Z,5.00
2018-06-16T07:02:40.929Z,5.00
2018-06-16T07:03:13.929Z,5.00
2018-06-16T07:03:47.000Z,5.00
2018-06-16T07:04:20.034Z,5.00
2018-06-16T07:04:53.079Z,5.00
2018-06-16T07:05:26.100Z,5.00
2018-06-16T07:05:59.143Z,5.00
2018-06-16T07:06:32.146Z,5.00
2018-06-16T07:07:05.319Z,5.00
2018-06-16T07:07:38.344Z,5.00
2018-06-16T07:08:11.356Z,5.00
2018-06-16T07:08:44.382Z,5.00
2018-06-16T07:09:18.074Z,5.00
2018-06-16T07:09:51.081Z,5.00
2018-06-16T07:10:24.085Z,5.00
2018-06-16T07:10:57.102Z,5.00
2018-06-16T07:11:30.105Z,5.00
2018-06-16T07:12:03.140Z,5.00
2018-06-16T07:12:36.128Z,5.00
2018-06-16T07:13:09.148Z,5.00
2018-06-16T07:13:42.193Z,5.00
2018-06-16T07:14:15.211Z,5.00
2018-06-16T07:14:48.518Z,5.00
2018-06-16T07:15:21.546Z,5.00
2018-06-16T07:15:54.658Z,5.00
2018-06-16T07:16:27.710Z,5.00
2018-06-16T07:17:00.688Z,5.00
2018-06-16T07:17:33.719Z,5.00
2018-06-16T07:18:06.830Z,5.00
2018-06-16T07:20:10.018Z,5.00
2018-06-16T07:20:43.043Z,5.00
2018-06-16T07:21:16.071Z,5.00
2018-06-16T07:21:49.073Z,5.00
2018-06-16T07:22:22.084Z,5.00
2018-06-16T07:22:55.088Z,5.00
2018-06-16T07:23:28.127Z,5.00
2018-06-16T07:24:01.162Z,5.00
2018-06-16T07:24:34.154Z,5.00
2018-06-16T07:25:07.155Z,5.00
2018-06-16T07:25:40.177Z,5.00
2018-06-16T07:26:13.218Z,5.00
2018-06-16T07:26:46.291Z,5.00
2018-06-16T07:27:19.310Z,5.00
2018-06-16T07:27:52.294Z,5.00
2018-06-16T07:28:25.317Z,5.00
2018-06-16T07:28:58.299Z,5.00
2018-06-16T07:29:31.292Z,5.00